Time;durP1;ratioP1;P1;durP2;ratioP2;P2;SDS_P1;SDS_P2;PMS_P1;PMS_P2;Temp;Humidity;BMP_temperature;BMP_pressure;BME280_temperature;BME280_humidity;BME280_pressure;Samples;Min_cycle;Max_cycle;Signal;HPM_P1;HPM_P2
2021/01/10 00:01:27;;;;;;;83.65;31.77;;;26.50;2201.60;;;;;;5061520;28;20032;-76
2021/01/10 00:03:52;;;;;;;87.68;30.05;;;26.50;2201.60;;;;;;5052659;28;20083;-77
2021/01/10 00:06:18;;;;;;;79.10;30.88;;;26.50;2201.60;;;;;;5072634;28;20021;-75
2021/01/10 00:08:43;;;;;;;82.10;31.23;;;26.40;2201.60;;;;;;5074674;28;20114;-74
2021/01/10 00:11:09;;;;;;;73.68;29.30;;;26.30;2201.60;;;;;;5066467;28;20036;-73
2021/01/10 00:13:35;;;;;;;81.90;29.50;;;26.40;2201.60;;;;;;5063860;28;20749;-72
2021/01/10 00:16:00;;;;;;;71.05;28.70;;;26.30;2201.60;;;;;;5069596;28;20354;-73
2021/01/10 00:18:26;;;;;;;66.05;27.50;;;26.40;2201.60;;;;;;5069399;28;20477;-74
2021/01/10 00:20:51;;;;;;;65.85;26.85;;;26.50;2201.60;;;;;;5068735;28;20534;-73
2021/01/10 00:23:17;;;;;;;65.28;26.75;;;26.50;2201.60;;;;;;5071309;28;20050;-73
2021/01/10 00:25:43;;;;;;;68.32;27.25;;;26.50;2201.60;;;;;;5063773;28;20025;-73
2021/01/10 00:28:08;;;;;;;67.97;28.15;;;26.50;2201.60;;;;;;5072794;28;20436;-76
2021/01/10 00:30:34;;;;;;;76.80;30.00;;;26.50;2201.60;;;;;;5067720;28;20074;-79
2021/01/10 00:32:59;;;;;;;70.47;28.52;;;26.50;2201.60;;;;;;5070104;28;20104;-77
2021/01/10 00:35:25;;;;;;;70.22;29.00;;;26.50;2201.60;;;;;;5068165;28;20366;-79
2021/01/10 00:37:55;;;;;;;79.53;32.88;;;26.50;2201.60;;;;;;5071831;28;20028;-74
2021/01/10 00:40:24;;;;;;;89.50;39.95;;;26.50;2201.60;;;;;;5069758;28;20159;-75
2021/01/10 00:42:49;;;;;;;78.47;32.28;;;26.50;2201.60;;;;;;5052039;28;20024;-75
2021/01/10 00:45:18;;;;;;;90.85;36.55;;;26.50;2201.60;;;;;;5068662;28;20020;-72
2021/01/10 00:47:44;;;;;;;78.78;32.35;;;26.50;2201.60;;;;;;5054390;28;20031;-74
2021/01/10 00:50:10;;;;;;;83.72;34.03;;;26.40;2201.60;;;;;;5072373;28;20021;-74
2021/01/10 00:52:36;;;;;;;69.68;30.13;;;26.50;2201.60;;;;;;5072475;28;20021;-74
2021/01/10 00:55:03;;;;;;;67.18;28.52;;;26.50;2201.60;;;;;;5066409;28;20032;-76
2021/01/10 00:57:28;;;;;;;69.13;28.95;;;26.50;2201.60;;;;;;5051980;28;20049;-78
2021/01/10 00:59:54;;;;;;;70.55;29.33;;;26.50;2201.60;;;;;;5067436;28;20515;-77
2021/01/10 01:02:19;;;;;;;67.70;29.33;;;26.50;2201.60;;;;;;5072236;28;20097;-78
2021/01/10 01:04:47;;;;;;;76.60;31.50;;;26.50;2201.60;;;;;;5070975;28;20027;-75
2021/01/10 01:07:13;;;;;;;69.78;29.17;;;26.50;2201.60;;;;;;5072393;28;20358;-74
2021/01/10 01:09:38;;;;;;;70.47;30.20;;;51.20;2227.20;;;;;;5072004;28;20027;-74
2021/01/10 01:12:05;;;;;;;60.60;27.05;;;51.20;2227.20;;;;;;5072070;28;20400;-75
2021/01/10 01:14:30;;;;;;;58.92;25.50;;;51.20;2227.20;;;;;;5072148;28;20354;-76
2021/01/10 01:16:56;;;;;;;66.93;28.70;;;51.20;2227.20;;;;;;5071786;28;20025;-74
2021/01/10 01:19:22;;;;;;;75.20;32.22;;;51.20;2227.20;;;;;;5069956;28;20060;-74
2021/01/10 01:21:53;;;;;;;66.97;29.67;;;51.20;2227.20;;;;;;5070587;28;20392;-77
2021/01/10 01:24:21;;;;;;;78.65;36.28;;;51.20;2227.20;;;;;;5067874;28;20432;-75
2021/01/10 01:26:46;;;;;;;70.22;31.83;;;51.20;2227.20;;;;;;5070899;28;20066;-75
2021/01/10 01:29:12;;;;;;;70.85;30.20;;;51.20;2227.20;;;;;;5070539;28;20048;-73
2021/01/10 01:31:38;;;;;;;67.75;28.40;;;51.20;2227.20;;;;;;5070361;28;20019;-74
2021/01/10 01:34:04;;;;;;;66.57;28.13;;;51.20;2227.20;;;;;;5071668;28;20098;-75
2021/01/10 01:36:29;;;;;;;65.80;27.60;;;26.50;2201.60;;;;;;5071437;28;20032;-74
2021/01/10 01:38:59;;;;;;;65.63;27.33;;;26.50;2201.60;;;;;;5056831;28;20426;-75
2021/01/10 01:41:24;;;;;;;64.30;28.73;;;26.50;2201.60;;;;;;5061606;28;20033;-74
2021/01/10 01:43:50;;;;;;;62.63;26.13;;;26.50;2201.60;;;;;;5057476;28;20032;-74
2021/01/10 01:46:30;;;;;;;59.75;25.10;;;51.20;2227.20;;;;;;5063535;28;20016;-73
2021/01/10 01:49:01;;;;;;;54.30;24.08;;;51.20;2227.20;;;;;;5059450;28;20497;-74
2021/01/10 01:51:27;;;;;;;60.13;26.20;;;26.50;2201.60;;;;;;5071586;28;20025;-73
2021/01/10 01:53:53;;;;;;;61.70;26.67;;;51.20;2227.20;;;;;;5071697;28;20025;-75
2021/01/10 01:56:18;;;;;;;57.55;24.80;;;51.20;2227.20;;;;;;5069103;28;20040;-75
2021/01/10 01:59:04;;;;;;;66.40;27.73;;;51.20;2227.20;;;;;;5064095;28;20044;-72
2021/01/10 02:01:30;;;;;;;58.00;27.48;;;51.20;2227.20;;;;;;5065111;28;20358;-69
2021/01/10 02:04:17;;;;;;;61.83;26.50;;;51.20;2227.20;;;;;;5066805;28;20028;-70
2021/01/10 02:07:02;;;;;;;80.13;33.53;;;51.20;2227.20;;;;;;5058699;28;20054;-70
2021/01/10 02:09:28;;;;;;;65.60;28.25;;;51.20;2227.20;;;;;;5070173;28;20021;-77
2021/01/10 02:11:53;;;;;;;67.93;27.83;;;26.50;2201.60;;;;;;5060048;28;20499;-81
2021/01/10 02:14:22;;;;;;;55.20;25.50;;;26.50;2201.60;;;;;;5038135;28;20020;-76
2021/01/10 02:16:47;;;;;;;58.78;26.77;;;26.50;2201.60;;;;;;5071168;28;20021;-75
2021/01/10 02:19:20;;;;;;;58.63;25.70;;;26.50;2201.60;;;;;;5047095;28;20021;-75
2021/01/10 02:21:46;;;;;;;48.17;22.42;;;26.50;2201.60;;;;;;5054214;28;20468;-76
2021/01/10 02:24:11;;;;;;;55.58;23.77;;;26.50;2201.60;;;;;;5054610;28;20099;-74
2021/01/10 02:26:37;;;;;;;49.38;22.80;;;26.50;2201.60;;;;;;5070964;28;20024;-76
2021/01/10 02:29:03;;;;;;;48.45;21.90;;;26.50;2201.60;;;;;;5054318;28;20052;-74
2021/01/10 02:31:29;;;;;;;56.33;24.92;;;26.50;2201.60;;;;;;5070943;28;20416;-73
2021/01/10 02:33:58;;;;;;;48.20;23.02;;;26.50;2201.60;;;;;;5049804;28;20029;-74
2021/01/10 02:36:51;;;;;;;47.78;21.17;;;26.40;2201.60;;;;;;5057424;28;20033;-74
2021/01/10 02:39:29;;;;;;;51.15;21.55;;;26.40;2201.60;;;;;;5071584;28;20044;-73
2021/01/10 02:42:01;;;;;;;47.08;20.85;;;26.40;2201.60;;;;;;5070811;28;20534;-77
2021/01/10 02:44:34;;;;;;;46.60;21.13;;;26.40;2201.60;;;;;;5054701;28;20024;-71
2021/01/10 02:47:00;;;;;;;46.28;21.88;;;26.40;2201.60;;;;;;5054970;28;20029;-72
2021/01/10 02:49:25;;;;;;;47.40;21.65;;;26.40;2201.60;;;;;;5059507;28;20492;-71
2021/01/10 02:51:51;;;;;;;47.97;22.88;;;26.40;2201.60;;;;;;5071816;28;20032;-71
2021/01/10 02:54:18;;;;;;;47.30;21.88;;;26.50;2201.60;;;;;;5072057;28;20024;-77
2021/01/10 02:56:54;;;;;;;45.08;20.73;;;26.50;2201.60;;;;;;5064037;28;20090;-74
2021/01/10 02:59:22;;;;;;;43.13;20.73;;;26.50;2201.60;;;;;;5070783;28;20481;-74
2021/01/10 03:01:48;;;;;;;45.63;21.15;;;26.50;2201.60;;;;;;5053937;28;20028;-73
2021/01/10 03:04:14;;;;;;;41.67;18.95;;;26.50;2201.60;;;;;;5053941;28;20677;-74
2021/01/10 03:06:39;;;;;;;39.78;18.15;;;26.50;2201.60;;;;;;5070585;28;20017;-74
2021/01/10 03:09:05;;;;;;;38.38;18.77;;;26.50;2201.60;;;;;;5054030;28;20055;-74
2021/01/10 03:11:30;;;;;;;40.90;19.08;;;26.50;2201.60;;;;;;5052512;28;20017;-76
2021/01/10 03:13:56;;;;;;;43.63;20.73;;;26.50;2201.60;;;;;;5053986;28;20381;-78
2021/01/10 03:16:22;;;;;;;45.50;22.10;;;26.40;2201.60;;;;;;5069966;28;20036;-77
2021/01/10 03:18:47;;;;;;;43.70;21.40;;;26.40;2201.60;;;;;;5067620;28;20021;-80
2021/01/10 03:21:13;;;;;;;43.95;21.08;;;26.40;2201.60;;;;;;5053830;28;20469;-80
2021/01/10 03:23:39;;;;;;;43.78;19.85;;;26.40;2201.60;;;;;;5053738;28;20034;-80
2021/01/10 03:26:04;;;;;;;45.55;20.08;;;26.40;2201.60;;;;;;5071793;28;20021;-78
2021/01/10 03:28:30;;;;;;;42.28;19.80;;;26.30;2201.60;;;;;;5071759;28;20025;-79
2021/01/10 03:30:55;;;;;;;45.00;20.42;;;26.30;2201.60;;;;;;5071580;28;20028;-77
2021/01/10 03:33:21;;;;;;;42.40;19.50;;;26.30;2201.60;;;;;;5070646;28;20028;-73
2021/01/10 03:35:47;;;;;;;36.83;17.38;;;26.40;2201.60;;;;;;5070041;28;20028;-73
2021/01/10 03:38:12;;;;;;;41.60;19.88;;;26.40;2201.60;;;;;;5071682;28;20362;-73
2021/01/10 03:40:38;;;;;;;46.05;22.15;;;26.40;2201.60;;;;;;5074494;28;20027;-75
2021/01/10 03:43:03;;;;;;;45.95;21.98;;;26.50;2201.60;;;;;;5075452;28;20020;-73
2021/01/10 03:45:29;;;;;;;44.35;21.95;;;26.50;2201.60;;;;;;5074302;28;20481;-74
2021/01/10 03:47:55;;;;;;;46.72;23.20;;;26.50;2201.60;;;;;;5075528;28;20473;-74
2021/01/10 03:50:20;;;;;;;39.08;19.73;;;26.50;2201.60;;;;;;5075454;28;20435;-74
2021/01/10 03:52:46;;;;;;;38.85;20.77;;;26.50;2201.60;;;;;;5073629;28;20366;-75
2021/01/10 03:55:11;;;;;;;37.72;18.80;;;26.50;2201.60;;;;;;5074215;28;20032;-74
2021/01/10 03:57:38;;;;;;;37.97;19.10;;;26.50;2201.60;;;;;;5074935;28;20084;-74
2021/01/10 04:00:09;;;;;;;47.35;21.67;;;26.40;2201.60;;;;;;5073833;28;20009;-73
2021/01/10 04:02:34;;;;;;;43.58;22.15;;;26.40;2201.60;;;;;;5075533;28;20021;-74
2021/01/10 04:05:00;;;;;;;38.33;20.00;;;26.40;2201.60;;;;;;5074863;28;20022;-74
2021/01/10 04:07:26;;;;;;;38.80;19.17;;;26.40;2201.60;;;;;;5075023;28;20025;-75
2021/01/10 04:09:51;;;;;;;35.15;17.23;;;26.40;2201.60;;;;;;5074932;28;20032;-74
2021/01/10 04:12:17;;;;;;;44.38;22.58;;;26.40;2201.60;;;;;;5075035;28;20031;-74
2021/01/10 04:14:42;;;;;;;41.33;19.63;;;26.40;2201.60;;;;;;5074858;28;20032;-73
2021/01/10 04:17:08;;;;;;;48.58;23.17;;;26.30;2201.60;;;;;;5074877;28;20028;-74
2021/01/10 04:19:34;;;;;;;44.40;21.05;;;26.30;2201.60;;;;;;5074856;28;20029;-74
2021/01/10 04:21:59;;;;;;;47.40;22.15;;;26.20;2201.60;;;;;;5074477;28;20409;-75
2021/01/10 04:24:25;;;;;;;38.97;19.95;;;26.20;2201.60;;;;;;5073544;28;20020;-75
2021/01/10 04:26:51;;;;;;;40.67;19.77;;;26.20;2201.60;;;;;;5074461;28;20091;-82
2021/01/10 04:29:19;;;;;;;43.75;21.08;;;26.20;2201.60;;;;;;5056727;28;20048;-85
2021/01/10 04:31:45;;;;;;;42.33;20.48;;;26.20;2201.60;;;;;;5056985;28;20087;-79
2021/01/10 04:34:10;;;;;;;40.38;19.75;;;26.20;2201.60;;;;;;5074719;28;20020;-79
2021/01/10 04:36:36;;;;;;;42.92;20.20;;;26.20;2201.60;;;;;;5074313;28;20032;-75
2021/01/10 04:39:02;;;;;;;42.38;21.00;;;26.30;2201.60;;;;;;5074273;28;20023;-78
2021/01/10 04:41:27;;;;;;;37.33;18.63;;;26.30;2201.60;;;;;;5074400;28;20016;-82
2021/01/10 04:43:53;;;;;;;37.72;19.80;;;26.40;2201.60;;;;;;5073144;28;20021;-79
2021/01/10 04:46:19;;;;;;;42.28;21.45;;;26.50;2201.60;;;;;;5074520;28;20087;-74
2021/01/10 04:48:44;;;;;;;44.28;21.65;;;26.40;2201.60;;;;;;5072917;28;20129;-77
2021/01/10 04:51:13;;;;;;;40.20;19.33;;;26.50;2201.60;;;;;;5056074;28;20099;-77
2021/01/10 04:53:38;;;;;;;44.80;20.35;;;26.40;2201.60;;;;;;5072782;28;20027;-75
2021/01/10 04:56:04;;;;;;;44.55;22.15;;;26.40;2201.60;;;;;;5056250;28;20044;-78
2021/01/10 04:58:30;;;;;;;45.83;22.00;;;26.40;2201.60;;;;;;5055954;28;20039;-79
2021/01/10 05:00:58;;;;;;;42.42;20.23;;;26.40;2201.60;;;;;;5056134;28;20073;-74
2021/01/10 05:03:24;;;;;;;44.58;21.00;;;26.40;2201.60;;;;;;5055999;28;20116;-74
2021/01/10 05:05:50;;;;;;;43.00;20.85;;;26.40;2201.60;;;;;;5074308;28;20112;-73
2021/01/10 05:08:16;;;;;;;44.83;22.08;;;26.30;2201.60;;;;;;5073685;28;20032;-74
2021/01/10 05:10:41;;;;;;;40.33;19.25;;;26.40;2201.60;;;;;;5073780;28;20028;-73
2021/01/10 05:13:07;;;;;;;39.03;18.08;;;26.40;2201.60;;;;;;5073445;28;20063;-72
2021/01/10 05:15:33;;;;;;;37.03;19.48;;;26.40;2201.60;;;;;;5056008;28;20032;-74
2021/01/10 05:17:59;;;;;;;45.65;20.80;;;26.40;2201.60;;;;;;5071925;28;20064;-73
2021/01/10 05:20:26;;;;;;;42.15;20.77;;;26.30;2201.60;;;;;;5072609;28;20540;-74
2021/01/10 05:22:51;;;;;;;39.00;19.98;;;26.40;2201.60;;;;;;5073596;28;20165;-74
2021/01/10 05:25:17;;;;;;;36.83;18.10;;;26.50;2201.60;;;;;;5073259;28;20021;-73
2021/01/10 05:27:47;;;;;;;38.47;18.38;;;26.40;2201.60;;;;;;5072198;28;20085;-76
2021/01/10 05:30:15;;;;;;;37.90;19.80;;;26.40;2201.60;;;;;;5055932;28;20024;-72
2021/01/10 05:32:40;;;;;;;35.35;17.65;;;26.50;2201.60;;;;;;5071923;28;20024;-77
2021/01/10 05:35:07;;;;;;;36.25;17.42;;;26.50;2201.60;;;;;;5073424;28;20036;-78
2021/01/10 05:37:32;;;;;;;36.25;17.52;;;26.50;2201.60;;;;;;5073037;28;20073;-78
2021/01/10 05:39:58;;;;;;;39.03;18.45;;;26.50;2201.60;;;;;;5073176;28;20021;-79
2021/01/10 05:42:29;;;;;;;37.85;18.58;;;26.50;2201.60;;;;;;5073196;28;20032;-79
2021/01/10 05:44:54;;;;;;;;;;;26.50;2201.60;;;;;;5072454;28;20425;-79
2021/01/10 05:47:20;;;;;;;31.83;15.60;;;26.50;2201.60;;;;;;5071858;28;19919;-74
2021/01/10 05:49:49;;;;;;;33.20;16.25;;;26.50;2201.60;;;;;;5073422;28;20024;-74
2021/01/10 05:52:16;;;;;;;35.57;17.33;;;26.50;2201.60;;;;;;5073137;28;20556;-74
2021/01/10 05:54:45;;;;;;;37.33;19.20;;;26.50;2201.60;;;;;;5072779;28;20031;-73
2021/01/10 05:57:18;;;;;;;33.85;17.58;;;26.40;2201.60;;;;;;5072829;28;20102;-77
2021/01/10 05:59:48;;;;;;;43.85;22.73;;;26.40;2201.60;;;;;;5072717;28;20024;-74
2021/01/10 06:02:13;;;;;;;41.33;20.67;;;26.50;2201.60;;;;;;5072361;28;20021;-73
2021/01/10 06:04:39;;;;;;;44.58;23.38;;;26.40;2201.60;;;;;;5072675;28;20027;-75
2021/01/10 06:07:05;;;;;;;53.42;27.02;;;26.50;2201.60;;;;;;5072950;28;20074;-74
2021/01/10 06:09:46;;;;;;;65.15;33.78;;;26.50;2201.60;;;;;;5072615;28;20047;-74
2021/01/10 06:12:24;;;;;;;61.40;30.27;;;26.50;2201.60;;;;;;5055174;28;20052;-74
2021/01/10 06:14:51;;;;;;;44.15;22.67;;;26.50;2201.60;;;;;;5072341;28;20112;-73
2021/01/10 06:17:16;;;;;;;40.28;19.77;;;26.50;2201.60;;;;;;5054843;28;20086;-73
2021/01/10 06:19:43;;;;;;;41.22;20.70;;;26.50;2201.60;;;;;;5072630;28;20423;-80
2021/01/10 06:22:12;;;;;;;39.47;20.67;;;26.50;2201.60;;;;;;5055013;28;20017;-79
2021/01/10 06:24:38;;;;;;;36.47;18.05;;;26.50;2201.60;;;;;;5055006;28;20067;-73
2021/01/10 06:27:05;;;;;;;40.33;18.25;;;26.50;2201.60;;;;;;5054373;28;20527;-71
2021/01/10 06:29:37;;;;;;;42.58;20.88;;;26.50;2201.60;;;;;;5071201;28;20035;-71
2021/01/10 06:32:03;;;;;;;38.88;18.73;;;26.50;2201.60;;;;;;5071239;28;20070;-72
2021/01/10 06:34:28;;;;;;;43.70;22.15;;;26.50;2201.60;;;;;;5071320;28;20028;-72
2021/01/10 06:36:54;;;;;;;44.13;21.77;;;26.50;2201.60;;;;;;5070989;28;20050;-72
2021/01/10 06:39:20;;;;;;;43.97;20.40;;;51.20;2227.20;;;;;;5071036;28;20025;-73
2021/01/10 06:42:06;;;;;;;54.35;24.88;;;51.20;2227.20;;;;;;5054376;28;20481;-71
2021/01/10 06:44:40;;;;;;;40.55;19.15;;;51.20;2227.20;;;;;;5072029;28;20103;-72
2021/01/10 06:47:06;;;;;;;41.38;19.83;;;51.20;2227.20;;;;;;5071086;28;20484;-72
2021/01/10 06:49:32;;;;;;;43.53;21.20;;;51.20;2227.20;;;;;;5054130;28;20070;-73
2021/01/10 06:51:59;;;;;;;48.70;23.83;;;51.20;2227.20;;;;;;5054341;28;20504;-72
2021/01/10 06:54:25;;;;;;;50.45;22.90;;;51.30;2227.20;;;;;;5070963;28;20029;-72
2021/01/10 06:56:52;;;;;;;50.78;22.75;;;51.40;2227.20;;;;;;5053852;28;20072;-72
2021/01/10 06:59:21;;;;;;;44.80;22.05;;;51.40;2227.20;;;;;;5072067;28;20424;-72
2021/01/10 07:01:51;;;;;;;45.70;22.23;;;51.40;2227.20;;;;;;5070901;28;20031;-75
2021/01/10 07:04:32;;;;;;;42.70;20.98;;;51.50;2227.20;;;;;;5072038;28;20016;-76
2021/01/10 07:06:57;;;;;;;;;;;51.50;2227.20;;;;;;5072511;28;20017;-72
2021/01/10 07:09:23;;;;;;;45.15;20.05;;;51.60;2227.20;;;;;;5071947;28;19905;-71
2021/01/10 07:11:49;;;;;;;42.92;21.75;;;51.60;2227.20;;;;;;5071814;28;20021;-71
2021/01/10 07:14:18;;;;;;;57.47;27.02;;;51.70;2227.20;;;;;;5073150;28;20111;-73
2021/01/10 07:16:44;;;;;;;43.60;21.67;;;51.70;2227.20;;;;;;5075738;28;20020;-72
2021/01/10 07:19:11;;;;;;;55.00;25.65;;;51.80;2227.20;;;;;;5074882;28;20039;-71
2021/01/10 07:21:41;;;;;;;63.00;29.45;;;51.80;2227.20;;;;;;5075787;28;20512;-71
2021/01/10 07:24:13;;;;;;;56.33;27.85;;;51.90;2227.20;;;;;;5074743;28;20016;-71
2021/01/10 07:26:43;;;;;;;55.22;28.17;;;51.80;2227.20;;;;;;5075749;28;20021;-71
2021/01/10 07:29:27;;;;;;;69.67;35.33;;;51.80;2227.20;;;;;;5074621;28;20017;-71
2021/01/10 07:31:54;;;;;;;51.88;28.08;;;51.80;2227.20;;;;;;5075836;28;20249;-72
2021/01/10 07:34:20;;;;;;;51.15;28.25;;;51.80;2227.20;;;;;;5075923;28;20036;-71
2021/01/10 07:36:46;;;;;;;49.58;24.85;;;51.80;2227.20;;;;;;5075563;28;20366;-72
2021/01/10 07:39:12;;;;;;;51.15;26.73;;;51.80;2227.20;;;;;;5075598;28;20027;-72
2021/01/10 07:41:38;;;;;;;63.72;31.20;;;51.80;2227.20;;;;;;5075545;28;20021;-75
2021/01/10 07:44:03;;;;;;;55.15;26.70;;;51.80;2227.20;;;;;;5074262;28;20095;-71
2021/01/10 07:46:54;;;;;;;56.85;28.35;;;51.70;2227.20;;;;;;5074150;28;20027;-75
2021/01/10 07:49:22;;;;;;;70.47;33.20;;;51.70;2227.20;;;;;;5075305;28;20105;-76
2021/01/10 07:51:47;;;;;;;68.22;32.92;;;51.80;2227.20;;;;;;5075311;28;20028;-76
2021/01/10 07:54:13;;;;;;;66.78;33.20;;;51.90;2227.20;;;;;;5075309;28;20024;-71
2021/01/10 07:56:39;;;;;;;67.53;32.75;;;52.00;2227.20;;;;;;5075057;28;20028;-72
2021/01/10 07:59:15;;;;;;;57.20;29.70;;;51.90;2227.20;;;;;;5075124;28;20155;-72
2021/01/10 08:01:50;;;;;;;54.20;30.17;;;52.10;2227.20;;;;;;5075214;28;20027;-74
2021/01/10 08:04:33;;;;;;;67.22;35.67;;;76.90;2227.20;;;;;;5057309;28;20012;-72
2021/01/10 08:06:59;;;;;;;53.80;31.38;;;77.00;2227.20;;;;;;5074016;28;20009;-73
2021/01/10 08:09:32;;;;;;;45.90;26.77;;;77.10;2227.20;;;;;;5073801;28;20024;-71
2021/01/10 08:11:59;;;;;;;61.08;31.35;;;77.10;2227.20;;;;;;5075114;28;20033;-72
2021/01/10 08:14:24;;;;;;;48.15;25.23;;;77.10;2227.20;;;;;;5073898;28;20020;-71
2021/01/10 08:16:50;;;;;;;49.67;25.20;;;77.10;2227.20;;;;;;5074756;28;20017;-73
2021/01/10 08:19:16;;;;;;;55.03;29.52;;;77.20;2227.20;;;;;;5074891;28;20046;-73
2021/01/10 08:21:41;;;;;;;89.22;42.63;;;77.20;2227.20;;;;;;5074843;28;20028;-73
2021/01/10 08:24:07;;;;;;;75.68;38.50;;;77.20;2227.20;;;;;;5074775;28;20595;-72
2021/01/10 08:26:40;;;;;;;59.10;32.72;;;77.30;2227.20;;;;;;5056031;28;20056;-71
2021/01/10 08:29:08;;;;;;;90.78;39.95;;;77.30;2227.20;;;;;;5074566;28;20070;-72
2021/01/10 08:31:34;;;;;;;94.70;44.13;;;77.40;2227.20;;;;;;5057221;28;20033;-72
2021/01/10 08:34:07;;;;;;;80.65;40.70;;;77.50;2227.20;;;;;;5074543;28;20032;-72
2021/01/10 08:36:33;;;;;;;45.60;24.70;;;77.70;2227.20;;;;;;5073434;28;20463;-74
2021/01/10 08:39:14;;;;;;;50.38;26.05;;;77.50;2227.20;;;;;;5073010;28;20469;-74
2021/01/10 08:41:42;;;;;;;56.65;28.33;;;77.50;2227.20;;;;;;5073374;28;20448;-74
2021/01/10 08:44:18;;;;;;;69.15;34.72;;;77.70;2227.20;;;;;;5073053;28;20020;-72
2021/01/10 08:46:48;;;;;;;60.58;31.42;;;77.50;2227.20;;;;;;5073210;28;20299;-71
2021/01/10 08:49:24;;;;;;;58.45;30.85;;;77.40;2227.20;;;;;;5076054;28;20479;-73
2021/01/10 08:51:50;;;;;;;88.47;49.08;;;77.50;2227.20;;;;;;5073083;28;20029;-71
2021/01/10 08:54:17;;;;;;;162.68;78.93;;;77.60;2227.20;;;;;;5056049;28;20039;-72
2021/01/10 08:56:44;;;;;;;267.75;113.75;;;77.60;2227.20;;;;;;5073309;28;20017;-73
2021/01/10 08:59:10;;;;;;;325.23;145.65;;;77.60;2227.20;;;;;;5072796;28;20025;-73
2021/01/10 09:01:35;;;;;;;160.82;74.10;;;77.60;2227.20;;;;;;5074378;28;20027;-72
2021/01/10 09:04:05;;;;;;;94.35;48.30;;;77.50;2227.20;;;;;;5074239;28;20385;-74
2021/01/10 09:07:10;;;;;;;170.98;73.32;;;77.50;2227.20;;;;;;5072930;28;20051;-73
2021/01/10 09:09:40;;;;;;;109.07;48.05;;;77.50;2227.20;;;;;;5079367;28;20024;-74
2021/01/10 09:12:46;;;;;;;119.13;52.67;;;77.40;2227.20;;;;;;5074146;28;20039;-73
2021/01/10 09:15:31;;;;;;;159.52;66.05;;;77.60;2227.20;;;;;;5074478;28;20099;-75
2021/01/10 09:18:02;;;;;;;328.30;109.25;;;77.70;2227.20;;;;;;5066559;28;20035;-75
2021/01/10 09:20:31;;;;;;;149.52;56.78;;;77.70;2227.20;;;;;;5073926;28;20161;-70
2021/01/10 09:22:57;;;;;;;107.45;47.35;;;77.70;2227.20;;;;;;5073830;28;20020;-75
2021/01/10 09:25:22;;;;;;;419.30;145.82;;;77.70;2227.20;;;;;;5055680;28;20024;-78
2021/01/10 09:28:24;;;;;;;95.60;40.70;;;102.40;2227.20;;;;;;5073509;28;20025;-72
2021/01/10 09:30:56;;;;;;;93.03;45.92;;;102.40;2227.20;;;;;;5071052;28;20032;-73
2021/01/10 09:33:23;;;;;;;59.55;32.72;;;102.50;2227.20;;;;;;5073474;28;20037;-74
2021/01/10 09:35:49;;;;;;;59.13;31.42;;;102.60;2227.20;;;;;;5073170;28;20512;-72
2021/01/10 09:38:15;;;;;;;53.55;28.02;;;102.60;2227.20;;;;;;5072844;28;20119;-78
2021/01/10 09:41:00;;;;;;;39.42;23.25;;;102.60;2227.20;;;;;;5073606;28;20019;-74
2021/01/10 09:43:42;;;;;;;43.33;24.05;;;102.70;2227.20;;;;;;5073291;28;20021;-77
2021/01/10 09:46:35;;;;;;;39.38;23.55;;;102.70;2227.20;;;;;;5051869;28;20025;-75
2021/01/10 09:49:08;;;;;;;63.58;33.67;;;102.70;2227.20;;;;;;5067379;28;20024;-79
2021/01/10 09:51:34;;;;;;;65.72;31.48;;;102.70;2227.20;;;;;;5071666;28;20024;-77
2021/01/10 09:54:25;;;;;;;72.30;39.00;;;102.50;2227.20;;;;;;5071874;28;20021;-73
2021/01/10 09:56:56;;;;;;;60.78;34.33;;;102.50;2227.20;;;;;;5072915;28;20059;-73
2021/01/10 09:59:44;;;;;;;46.30;26.33;;;102.40;2227.20;;;;;;5071765;28;20481;-73
2021/01/10 10:02:20;;;;;;;39.70;22.27;;;102.40;2227.20;;;;;;5071961;28;20051;-72
2021/01/10 10:04:49;;;;;;;82.55;44.95;;;102.40;2227.20;;;;;;5072929;28;20075;-76
2021/01/10 10:07:29;;;;;;;60.80;32.45;;;77.70;2227.20;;;;;;5071978;28;20024;-76
2021/01/10 10:09:55;;;;;;;58.85;30.23;;;77.70;2227.20;;;;;;5055045;28;20029;-75
2021/01/10 10:12:22;;;;;;;46.50;25.05;;;77.70;2227.20;;;;;;5072827;28;20028;-76
2021/01/10 10:15:15;;;;;;;60.65;31.42;;;77.70;2227.20;;;;;;5054604;28;20025;-72
2021/01/10 10:17:40;;;;;;;68.00;36.25;;;77.60;2227.20;;;;;;5063177;28;20101;-73
2021/01/10 10:20:06;;;;;;;80.07;45.10;;;77.70;2227.20;;;;;;5072094;28;20012;-73
2021/01/10 10:22:33;;;;;;;68.88;37.63;;;77.70;2227.20;;;;;;5072468;28;20475;-73
2021/01/10 10:25:00;;;;;;;64.53;33.85;;;77.70;2227.20;;;;;;5071270;28;20019;-83
2021/01/10 10:27:27;;;;;;;71.18;36.15;;;77.50;2227.20;;;;;;5055214;28;20024;-83
2021/01/10 10:29:52;;;;;;;68.07;34.55;;;77.50;2227.20;;;;;;5038300;28;20024;-83
2021/01/10 10:32:18;;;;;;;67.63;35.80;;;77.50;2227.20;;;;;;5072581;28;20427;-78
2021/01/10 10:34:44;;;;;;;62.95;37.10;;;77.60;2227.20;;;;;;5072728;28;20560;-85
2021/01/10 10:37:09;;;;;;;60.15;32.55;;;77.50;2227.20;;;;;;5036057;28;20401;-78
2021/01/10 10:39:36;;;;;;;75.97;39.45;;;77.50;2227.20;;;;;;5059059;28;20074;-73
2021/01/10 10:42:02;;;;;;;68.30;38.28;;;77.50;2227.20;;;;;;5071193;28;20020;-82
2021/01/10 10:44:28;;;;;;;60.63;34.05;;;77.40;2227.20;;;;;;5070730;28;20016;-75
2021/01/10 10:46:54;;;;;;;80.15;43.22;;;77.40;2227.20;;;;;;5058239;28;20017;-75
2021/01/10 10:49:19;;;;;;;68.25;36.88;;;77.30;2227.20;;;;;;5050560;28;20911;-79
2021/01/10 10:51:45;;;;;;;59.08;31.73;;;77.30;2227.20;;;;;;5065450;28;20032;-74
2021/01/10 10:54:11;;;;;;;70.65;36.90;;;77.30;2227.20;;;;;;5059352;28;20021;-74
2021/01/10 10:56:39;;;;;;;82.32;45.55;;;77.30;2227.20;;;;;;5053726;28;20029;-77
2021/01/10 10:59:06;;;;;;;56.63;30.52;;;77.20;2227.20;;;;;;5055086;28;20053;-78
2021/01/10 11:01:37;;;;;;;68.10;35.60;;;77.10;2227.20;;;;;;5059572;28;20036;-84
2021/01/10 11:04:03;;;;;;;83.63;42.95;;;77.10;2227.20;;;;;;5067635;28;20376;-82
2021/01/10 11:06:29;;;;;;;98.60;50.40;;;77.10;2227.20;;;;;;5047991;28;20108;-79
2021/01/10 11:08:54;;;;;;;88.03;43.13;;;77.20;2227.20;;;;;;5071619;28;20027;-77
2021/01/10 11:11:20;;;;;;;80.75;42.05;;;77.20;2227.20;;;;;;5070941;28;20043;-73
2021/01/10 11:13:46;;;;;;;80.13;40.50;;;77.20;2227.20;;;;;;5071057;28;20020;-73
2021/01/10 11:16:11;;;;;;;98.47;48.40;;;77.20;2227.20;;;;;;5070140;28;20552;-73
2021/01/10 11:18:37;;;;;;;76.25;39.05;;;77.30;2227.20;;;;;;5070064;28;20397;-79
2021/01/10 11:21:03;;;;;;;65.18;34.53;;;77.20;2227.20;;;;;;5052168;28;20021;-74
2021/01/10 11:23:29;;;;;;;72.93;40.38;;;77.10;2227.20;;;;;;5055788;28;20021;-83
2021/01/10 11:25:55;;;;;;;53.00;31.15;;;77.20;2227.20;;;;;;5054473;28;20033;-78
2021/01/10 11:28:20;;;;;;;54.08;30.45;;;77.20;2227.20;;;;;;5062903;28;20029;-80
2021/01/10 11:30:46;;;;;;;48.80;29.55;;;77.20;2227.20;;;;;;5046128;28;20112;-74
2021/01/10 11:33:11;;;;;;;50.08;27.02;;;77.30;2227.20;;;;;;5054265;28;20017;-78
2021/01/10 11:35:39;;;;;;;50.60;26.70;;;77.30;2227.20;;;;;;5071786;28;20021;-75
2021/01/10 11:38:04;;;;;;;44.70;23.83;;;77.30;2227.20;;;;;;5061803;28;20029;-77
2021/01/10 11:40:30;;;;;;;42.53;22.17;;;77.40;2227.20;;;;;;5031406;28;20078;-84
2021/01/10 11:42:56;;;;;;;44.58;23.77;;;77.30;2227.20;;;;;;5068613;28;20400;-85
2021/01/10 11:45:21;;;;;;;50.60;26.95;;;77.40;2227.20;;;;;;5052441;28;20021;-77
2021/01/10 11:47:47;;;;;;;48.05;24.25;;;77.40;2227.20;;;;;;5070667;28;20019;-76
2021/01/10 11:50:12;;;;;;;60.15;32.03;;;77.50;2227.20;;;;;;5070778;28;20027;-73
2021/01/10 11:52:38;;;;;;;46.95;24.75;;;77.50;2227.20;;;;;;5059271;28;20043;-72
2021/01/10 11:55:04;;;;;;;49.42;25.98;;;77.50;2227.20;;;;;;5053833;28;20400;-74
2021/01/10 11:57:30;;;;;;;58.58;29.67;;;77.50;2227.20;;;;;;5051835;28;20509;-71
2021/01/10 11:59:55;;;;;;;70.60;35.88;;;77.50;2227.20;;;;;;5051549;28;20096;-73
2021/01/10 12:02:21;;;;;;;86.68;42.72;;;77.60;2227.20;;;;;;5054681;28;20021;-73
2021/01/10 12:04:46;;;;;;;68.15;35.88;;;77.50;2227.20;;;;;;5056652;28;20057;-74
2021/01/10 12:07:12;;;;;;;53.17;28.10;;;77.50;2227.20;;;;;;5072376;28;20095;-73
2021/01/10 12:09:38;;;;;;;61.28;31.30;;;77.50;2227.20;;;;;;5073194;28;20028;-72
2021/01/10 12:12:04;;;;;;;50.28;26.45;;;77.50;2227.20;;;;;;5071536;28;20103;-72
2021/01/10 12:14:29;;;;;;;66.55;34.72;;;77.50;2227.20;;;;;;5074595;28;20373;-72